createdAt,value
2018-05-21T00:00:46.520Z,15.60
2018-05-21T00:01:46.533Z,14.20
2018-05-21T00:02:46.491Z,14.50
2018-05-21T00:03:46.481Z,14.30
2018-05-21T00:04:46.488Z,13.90
2018-05-21T00:05:46.471Z,14.40
2018-05-21T00:06:46.459Z,14.00
2018-05-21T00:07:46.472Z,14.10
2018-05-21T00:08:46.482Z,14.60
2018-05-21T00:09:46.480Z,14.40
2018-05-21T00:10:46.433Z,14.50
2018-05-21T00:11:46.447Z,14.60
2018-05-21T00:12:46.417Z,14.00
2018-05-21T00:13:46.413Z,14.70
2018-05-21T00:14:46.407Z,14.20
2018-05-21T00:15:46.427Z,14.00
2018-05-21T00:16:46.466Z,14.30
2018-05-21T00:17:46.392Z,14.20
2018-05-21T00:18:46.386Z,13.70
2018-05-21T00:19:46.381Z,13.80
2018-05-21T00:20:46.376Z,13.70
2018-05-21T00:21:46.429Z,14.10
2018-05-21T00:22:46.428Z,14.70
2018-05-21T00:23:46.372Z,14.70
2018-05-21T00:24:46.376Z,14.10
2018-05-21T00:25:46.388Z,14.70
2018-05-21T00:26:46.393Z,14.00
2018-05-21T00:27:46.400Z,14.30
2018-05-21T00:28:46.407Z,14.40
2018-05-21T00:29:46.416Z,14.50
2018-05-21T00:30:46.364Z,15.20
2018-05-21T00:31:46.434Z,15.10
2018-05-21T00:32:46.433Z,14.70
2018-05-21T00:33:46.399Z,15.10
2018-05-21T00:34:46.443Z,14.70
2018-05-21T00:35:46.352Z,14.80
2018-05-21T00:36:46.364Z,15.30
2018-05-21T00:37:46.303Z,15.10
2018-05-21T00:38:46.301Z,14.30
2018-05-21T00:39:46.316Z,14.10
2018-05-21T00:40:46.276Z,14.50
2018-05-21T00:41:46.289Z,14.20
2018-05-21T00:42:46.293Z,14.30
2018-05-21T00:43:46.279Z,14.10
2018-05-21T00:44:46.437Z,14.30
2018-05-21T00:45:46.283Z,14.20
2018-05-21T00:46:46.287Z,14.60
2018-05-21T00:47:46.280Z,14.60
2018-05-21T00:48:46.288Z,14.10
2018-05-21T00:49:46.225Z,15.30
2018-05-21T00:50:46.240Z,14.80
2018-05-21T00:51:46.247Z,14.80
2018-05-21T00:52:46.254Z,14.80
2018-05-21T00:53:46.222Z,15.10
2018-05-21T00:54:46.239Z,14.70
2018-05-21T00:55:46.236Z,14.70
2018-05-21T00:56:46.216Z,14.60
2018-05-21T00:57:46.222Z,16.00
2018-05-21T00:58:46.190Z,15.40
2018-05-21T00:59:46.199Z,15.50
2018-05-21T01:00:47.140Z,16.10
2018-05-21T01:01:46.223Z,15.10
2018-05-21T01:02:46.163Z,15.50
2018-05-21T01:03:46.170Z,15.70
2018-05-21T01:04:46.173Z,15.60
2018-05-21T01:05:46.163Z,15.70
2018-05-21T01:06:46.169Z,15.10
2018-05-21T01:07:46.167Z,16.00
2018-05-21T01:08:46.164Z,15.40
2018-05-21T01:09:46.165Z,15.10
2018-05-21T01:10:46.171Z,15.30
2018-05-21T01:11:46.112Z,15.50
2018-05-21T01:12:46.141Z,16.20
2018-05-21T01:13:46.172Z,16.30
2018-05-21T01:14:46.104Z,15.90
2018-05-21T01:15:46.185Z,15.50
2018-05-21T01:16:46.104Z,15.60
2018-05-21T01:17:46.113Z,15.20
2018-05-21T01:18:46.075Z,16.10
2018-05-21T01:19:46.090Z,16.50
2018-05-21T01:20:46.089Z,15.70
2018-05-21T01:21:46.084Z,16.20
2018-05-21T01:22:46.089Z,16.30
2018-05-21T01:23:46.048Z,16.00
2018-05-21T01:24:46.032Z,16.20
2018-05-21T01:25:46.025Z,16.30
2018-05-21T01:26:46.071Z,16.10
2018-05-21T01:27:46.007Z,15.50
2018-05-21T01:28:46.028Z,16.30
2018-05-21T01:29:46.005Z,15.90
2018-05-21T02:03:57.471Z,9.00
2018-05-21T02:04:57.441Z,18.00
2018-05-21T02:05:57.429Z,22.60
2018-05-21T02:06:57.419Z,25.00
2018-05-21T02:07:57.407Z,27.10
2018-05-21T02:08:57.393Z,28.00
2018-05-21T02:09:57.453Z,27.20
2018-05-21T02:10:57.381Z,26.90
2018-05-21T02:11:57.364Z,25.50
2018-05-21T02:12:57.362Z,26.20
2018-05-21T02:13:57.348Z,24.90
2018-05-21T02:14:57.359Z,25.00
2018-05-21T02:15:57.332Z,24.90
2018-05-21T02:16:57.329Z,23.20
2018-05-21T02:17:57.324Z,23.70
2018-05-21T02:18:57.312Z,22.80
2018-05-21T02:19:57.389Z,22.40
2018-05-21T02:20:57.297Z,21.70
2018-05-21T02:21:57.303Z,21.00
2018-05-21T02:22:57.281Z,21.00
2018-05-21T02:23:57.290Z,22.00
2018-05-21T02:24:57.267Z,22.10
2018-05-21T02:25:57.266Z,22.10
2018-05-21T02:26:57.303Z,21.50
2018-05-21T02:27:57.248Z,20.30
2018-05-21T02:28:57.254Z,21.60
2018-05-21T02:29:57.270Z,21.30
2018-05-21T02:30:57.236Z,21.20
2018-05-21T02:31:57.225Z,21.00
2018-05-21T02:32:57.254Z,21.50
2018-05-21T02:33:57.227Z,21.30
2018-05-21T02:34:57.215Z,21.10
2018-05-21T02:35:57.202Z,22.30
2018-05-21T02:36:57.241Z,21.50
2018-05-21T02:37:57.210Z,22.40
2018-05-21T02:38:57.265Z,22.30
2018-05-21T02:39:57.188Z,22.00
2018-05-21T02:40:57.215Z,20.80
2018-05-21T02:41:57.169Z,19.70
2018-05-21T02:42:57.794Z,20.00
2018-05-21T02:43:57.169Z,21.70
2018-05-21T02:44:57.192Z,21.60
2018-05-21T02:45:57.153Z,21.10
2018-05-21T02:46:57.226Z,20.40
2018-05-21T02:47:57.128Z,20.90
2018-05-21T02:48:57.147Z,19.80
2018-05-21T02:49:57.206Z,21.50
2018-05-21T02:50:57.133Z,21.30
2018-05-21T02:51:57.110Z,20.40
2018-05-21T02:52:57.105Z,20.00
2018-05-21T02:53:57.121Z,20.60
2018-05-21T02:54:57.094Z,20.00
2018-05-21T02:55:57.092Z,20.00
2018-05-21T02:56:57.149Z,20.40
2018-05-21T02:57:57.074Z,20.30
2018-05-21T02:58:57.071Z,21.00
2018-05-21T02:59:57.072Z,20.40
2018-05-21T03:00:57.063Z,20.10
2018-05-21T03:01:57.054Z,22.20
2018-05-21T03:02:57.078Z,21.40
2018-05-21T03:03:57.035Z,21.30
2018-05-21T03:04:57.037Z,22.10
2018-05-21T03:05:57.039Z,20.90
2018-05-21T03:06:57.035Z,20.60
2018-05-21T03:07:57.019Z,21.40
2018-05-21T03:08:57.014Z,21.40
2018-05-21T03:09:57.011Z,21.30
2018-05-21T03:10:57.004Z,21.40
2018-05-21T03:11:56.998Z,22.10
2018-05-21T03:12:57.010Z,22.10
2018-05-21T03:13:57.006Z,22.10
2018-05-21T03:14:56.996Z,23.50
2018-05-21T03:15:56.973Z,24.50
2018-05-21T03:16:56.976Z,22.90
2018-05-21T03:17:56.954Z,22.70
2018-05-21T03:18:56.954Z,22.20
2018-05-21T03:19:56.949Z,23.60
2018-05-21T03:20:56.944Z,23.60
2018-05-21T03:21:56.944Z,22.70
2018-05-21T03:22:56.935Z,21.70
2018-05-21T03:23:56.952Z,22.00
2018-05-21T03:24:56.916Z,20.40
2018-05-21T03:25:56.916Z,20.60
2018-05-21T03:26:56.913Z,20.90
2018-05-21T03:27:56.909Z,21.80
2018-05-21T03:28:56.899Z,20.60
2018-05-21T03:29:56.901Z,20.90
2018-05-21T03:30:56.892Z,20.50
2018-05-21T03:31:56.881Z,20.60
2018-05-21T03:32:56.875Z,21.50
2018-05-21T03:33:56.875Z,21.30
2018-05-21T03:34:56.869Z,20.40
2018-05-21T03:35:56.850Z,21.90
2018-05-21T03:36:56.851Z,20.10
2018-05-21T03:37:56.847Z,20.60
2018-05-21T03:38:56.855Z,20.40
2018-05-21T03:39:56.834Z,20.50
2018-05-21T03:40:56.822Z,21.50
2018-05-21T03:41:56.821Z,23.60
2018-05-21T03:42:56.828Z,22.40
2018-05-21T03:43:56.803Z,23.40
2018-05-21T03:44:56.805Z,23.00
2018-05-21T03:45:56.815Z,23.10
2018-05-21T03:46:56.805Z,22.60
2018-05-21T03:47:56.784Z,21.50
2018-05-21T03:48:56.780Z,20.80
2018-05-21T03:49:56.772Z,22.00
2018-05-21T03:50:56.776Z,22.80
2018-05-21T03:51:56.757Z,20.90
2018-05-21T03:52:56.754Z,20.60
2018-05-21T03:53:56.765Z,20.90
2018-05-21T03:54:56.764Z,21.40
2018-05-21T03:55:56.738Z,22.00
2018-05-21T03:56:56.787Z,21.80
2018-05-21T03:57:56.729Z,22.40
2018-05-21T03:58:56.722Z,24.00
2018-05-21T03:59:56.715Z,22.70
2018-05-21T04:00:56.720Z,22.00
2018-05-21T04:01:56.704Z,22.10
2018-05-21T04:02:56.711Z,21.60
2018-05-21T04:03:56.691Z,20.80
2018-05-21T04:04:56.685Z,20.50
2018-05-21T04:05:56.682Z,21.10
2018-05-21T04:06:56.673Z,21.00
2018-05-21T04:07:56.664Z,21.10
2018-05-21T04:08:56.664Z,22.30
2018-05-21T04:09:56.653Z,22.90
2018-05-21T04:10:56.674Z,22.90
2018-05-21T04:11:56.721Z,21.90
2018-05-21T04:12:56.648Z,21.90
2018-05-21T04:13:56.636Z,21.80
2018-05-21T04:14:56.639Z,22.80
2018-05-21T04:15:56.630Z,21.60
2018-05-21T04:16:56.634Z,21.60
2018-05-21T04:17:56.627Z,22.60
2018-05-21T04:18:56.616Z,21.30
2018-05-21T04:19:56.640Z,21.90
2018-05-21T04:20:56.599Z,21.40
2018-05-21T04:21:56.593Z,21.50
2018-05-21T04:22:56.595Z,21.60
2018-05-21T04:23:56.581Z,21.20
2018-05-21T04:24:56.579Z,21.40
2018-05-21T04:25:56.570Z,21.00
2018-05-21T04:26:56.572Z,21.10
2018-05-21T04:27:56.586Z,21.00
2018-05-21T04:28:56.553Z,20.20
2018-05-21T04:29:56.560Z,21.00
2018-05-21T04:30:56.545Z,20.80
2018-05-21T04:31:56.560Z,20.00
2018-05-21T04:32:56.531Z,20.50
2018-05-21T04:33:56.534Z,20.50
2018-05-21T04:34:56.521Z,21.20
2018-05-21T04:35:56.530Z,20.70
2018-05-21T04:36:56.517Z,19.20
2018-05-21T04:37:56.525Z,19.40
2018-05-21T04:38:56.505Z,19.40
2018-05-21T04:39:56.498Z,19.90
2018-05-21T04:40:56.512Z,19.80
2018-05-21T04:41:56.487Z,19.60
2018-05-21T04:42:56.492Z,19.10
2018-05-21T04:43:56.478Z,20.00
2018-05-21T04:44:56.479Z,18.50
2018-05-21T04:45:56.472Z,18.80
2018-05-21T04:46:56.474Z,19.00
2018-05-21T04:47:56.465Z,18.70
2018-05-21T04:48:56.456Z,17.90
2018-05-21T04:49:56.449Z,18.80
2018-05-21T04:50:56.448Z,18.80
2018-05-21T04:51:56.437Z,18.20
2018-05-21T04:52:56.441Z,18.10
2018-05-21T04:53:56.437Z,18.70
2018-05-21T04:54:56.428Z,18.40
2018-05-21T04:55:56.423Z,18.10
2018-05-21T04:56:56.417Z,17.90
2018-05-21T04:57:56.410Z,18.00
2018-05-21T04:58:56.485Z,18.10
2018-05-21T04:59:56.409Z,16.80
2018-05-21T05:00:56.400Z,17.30
2018-05-21T05:01:56.399Z,17.50
2018-05-21T05:02:56.390Z,16.50
2018-05-21T05:03:56.925Z,16.30
2018-05-21T05:04:56.397Z,17.10
2018-05-21T05:05:56.385Z,15.80
2018-05-21T05:06:56.374Z,16.50
2018-05-21T05:07:56.370Z,15.40
2018-05-21T05:08:56.363Z,16.00
2018-05-21T05:09:56.363Z,15.50
2018-05-21T05:10:56.358Z,16.00
2018-05-21T05:11:56.386Z,15.50
2018-05-21T05:12:56.342Z,16.30
2018-05-21T05:13:56.348Z,16.00
2018-05-21T05:14:56.342Z,16.30
2018-05-21T05:15:56.324Z,15.20
2018-05-21T05:16:56.325Z,15.00
2018-05-21T05:17:56.332Z,14.70
2018-05-21T05:18:56.366Z,15.20
2018-05-21T05:19:56.317Z,15.50
2018-05-21T05:20:56.316Z,15.00
2018-05-21T05:21:56.310Z,14.60
2018-05-21T05:22:56.304Z,14.80
2018-05-21T05:23:56.303Z,14.70
2018-05-21T05:24:56.297Z,14.70
2018-05-21T05:25:56.302Z,14.40
2018-05-21T05:26:56.298Z,13.80
2018-05-21T05:27:56.298Z,15.30
2018-05-21T05:28:56.302Z,13.90
2018-05-21T05:29:56.281Z,13.30
2018-05-21T05:30:56.276Z,13.50
2018-05-21T05:31:56.262Z,13.10
2018-05-21T05:32:56.263Z,13.60
2018-05-21T05:33:56.260Z,12.70
2018-05-21T05:34:56.311Z,13.10
2018-05-21T05:35:56.252Z,13.20
2018-05-21T05:36:56.251Z,12.60
2018-05-21T05:37:56.250Z,12.80
2018-05-21T05:38:56.244Z,12.30
2018-05-21T05:39:56.241Z,12.60
2018-05-21T05:40:56.240Z,12.20
2018-05-21T05:41:56.238Z,12.40
2018-05-21T05:42:56.247Z,12.50
2018-05-21T05:43:56.224Z,11.80
2018-05-21T05:44:56.223Z,11.70
2018-05-21T05:45:56.257Z,11.70
2018-05-21T05:46:56.247Z,11.90
2018-05-21T05:47:56.211Z,12.70
2018-05-21T05:48:56.265Z,11.90
2018-05-21T05:49:56.203Z,11.60
2018-05-21T05:50:56.201Z,11.70
2018-05-21T05:51:56.198Z,11.30
2018-05-21T05:52:56.189Z,11.90
2018-05-21T05:53:56.189Z,11.70
2018-05-21T05:54:56.186Z,11.80
2018-05-21T05:55:56.184Z,11.60
2018-05-21T05:56:56.184Z,11.00
2018-05-21T05:57:56.213Z,11.50
2018-05-21T05:58:56.177Z,11.30
2018-05-21T05:59:56.185Z,11.00
2018-05-21T06:00:56.172Z,10.80
2018-05-21T06:01:56.168Z,10.80
2018-05-21T06:02:56.255Z,11.00
2018-05-21T06:03:56.154Z,10.70
2018-05-21T06:04:56.157Z,10.40
2018-05-21T06:05:56.165Z,10.20
2018-05-21T06:06:56.182Z,10.80
2018-05-21T06:07:56.157Z,10.60
2018-05-21T06:08:57.162Z,10.30
2018-05-21T06:09:56.146Z,11.00
2018-05-21T06:10:56.145Z,10.50
2018-05-21T06:11:56.161Z,10.60
2018-05-21T06:12:56.139Z,10.50
2018-05-21T06:13:56.139Z,10.20
2018-05-21T06:14:56.135Z,9.70
2018-05-21T06:15:56.140Z,8.60
2018-05-21T06:16:56.126Z,8.60
2018-05-21T06:17:56.123Z,9.20
2018-05-21T06:18:56.134Z,8.90
2018-05-21T06:19:56.137Z,9.20
2018-05-21T06:20:56.117Z,9.20
2018-05-21T06:21:56.912Z,9.70
2018-05-21T06:22:56.219Z,9.10
2018-05-21T06:23:56.113Z,9.00
2018-05-21T06:24:56.109Z,9.10
2018-05-21T06:25:56.108Z,8.40
2018-05-21T06:26:56.118Z,8.40
2018-05-21T06:27:56.090Z,8.10
2018-05-21T06:28:56.104Z,8.30
2018-05-21T06:29:56.095Z,8.80
2018-05-21T06:30:56.090Z,8.70
2018-05-21T06:31:56.084Z,10.00
2018-05-21T06:32:56.084Z,8.60
2018-05-21T06:33:56.100Z,8.60
2018-05-21T06:34:56.078Z,8.40
2018-05-21T06:35:56.073Z,8.30
2018-05-21T06:36:56.072Z,8.30
2018-05-21T06:37:56.062Z,8.50
2018-05-21T06:38:56.086Z,8.90
2018-05-21T06:39:56.069Z,8.40
2018-05-21T06:40:56.083Z,8.90
2018-05-21T06:41:56.054Z,8.60
2018-05-21T06:42:56.067Z,8.40
2018-05-21T06:43:56.060Z,8.30
2018-05-21T06:44:56.065Z,8.30
2018-05-21T06:45:56.061Z,8.20
2018-05-21T06:46:56.062Z,8.70
2018-05-21T06:47:56.050Z,8.50
2018-05-21T06:48:56.048Z,8.40
2018-05-21T06:49:56.052Z,8.80
2018-05-21T06:50:56.058Z,8.70
2018-05-21T06:51:56.045Z,8.70
2018-05-21T06:52:56.085Z,8.80
2018-05-21T06:53:56.084Z,8.70
2018-05-21T06:54:56.061Z,8.40
2018-05-21T06:55:56.052Z,8.40
2018-05-21T06:56:56.113Z,8.60
2018-05-21T06:57:56.050Z,8.60
2018-05-21T06:58:56.039Z,8.50
2018-05-21T06:59:56.043Z,9.00
2018-05-21T07:00:56.036Z,8.20
2018-05-21T07:01:56.037Z,8.30
2018-05-21T07:02:56.038Z,8.10
2018-05-21T07:03:56.035Z,8.50
2018-05-21T07:04:56.031Z,7.90
2018-05-21T07:05:56.030Z,8.30
2018-05-21T07:06:56.032Z,8.40
2018-05-21T07:07:56.121Z,8.40
2018-05-21T07:08:56.050Z,8.50
2018-05-21T07:09:56.052Z,8.30
2018-05-21T07:10:56.037Z,8.10
2018-05-21T07:11:56.040Z,8.10
2018-05-21T07:12:56.055Z,8.30
2018-05-21T07:13:56.058Z,8.00
2018-05-21T07:14:56.061Z,8.30
2018-05-21T07:15:56.060Z,7.80
2018-05-21T07:16:56.089Z,8.10
2018-05-21T07:17:56.071Z,7.90
2018-05-21T07:18:56.080Z,7.50
2018-05-21T07:19:56.083Z,7.70
2018-05-21T07:20:56.091Z,7.60
2018-05-21T07:21:56.104Z,7.40
2018-05-21T07:22:56.099Z,7.10
2018-05-21T07:23:56.118Z,7.40
2018-05-21T07:24:56.136Z,7.10
2018-05-21T07:25:56.141Z,7.00
2018-05-21T07:26:56.165Z,6.80
2018-05-21T07:27:56.157Z,7.20
2018-05-21T07:28:56.175Z,6.90
2018-05-21T07:29:56.192Z,6.20
2018-05-21T07:30:56.188Z,6.20
2018-05-21T07:31:56.216Z,5.50
2018-05-21T07:32:56.269Z,5.40
2018-05-21T07:33:56.254Z,5.10
2018-05-21T07:34:56.282Z,4.50
2018-05-21T07:35:56.239Z,4.90
2018-05-21T07:36:56.335Z,5.10
2018-05-21T07:37:56.270Z,4.70
2018-05-21T07:38:56.288Z,5.10
2018-05-21T07:39:56.293Z,5.10
2018-05-21T07:40:56.310Z,4.80
2018-05-21T07:41:56.325Z,5.00
2018-05-21T07:42:56.356Z,4.90
2018-05-21T07:43:56.356Z,4.90
2018-05-21T07:44:56.419Z,6.20
2018-05-21T07:45:56.377Z,5.70
2018-05-21T07:46:56.399Z,5.80
2018-05-21T07:47:56.405Z,5.80
2018-05-21T07:48:56.421Z,5.40
2018-05-21T07:49:56.441Z,5.70
2018-05-21T07:50:56.456Z,5.70
2018-05-21T07:51:56.465Z,5.10
2018-05-21T07:52:56.499Z,4.60
2018-05-21T07:53:56.619Z,4.60
2018-05-21T07:55:00.256Z,4.60
2018-05-21T07:55:56.866Z,4.80
2018-05-21T07:56:56.673Z,4.80
2018-05-21T07:57:56.741Z,4.70
2018-05-21T07:58:56.771Z,4.40
2018-05-21T07:59:56.752Z,4.70
2018-05-21T08:00:56.813Z,4.60
2018-05-21T08:01:56.771Z,4.60
2018-05-21T08:02:56.752Z,4.90
2018-05-21T08:03:56.849Z,5.00
2018-05-21T08:04:56.913Z,4.70
2018-05-21T08:05:56.780Z,5.10
2018-05-21T08:06:56.823Z,5.10
2018-05-21T08:07:56.909Z,5.20
2018-05-21T08:08:56.888Z,4.90
2018-05-21T08:09:56.904Z,5.30
2018-05-21T08:10:56.780Z,5.60
2018-05-21T08:11:56.982Z,4.80
2018-05-21T08:12:56.904Z,5.50
2018-05-21T08:13:56.894Z,5.50
2018-05-21T08:14:56.872Z,4.90
2018-05-21T08:15:56.878Z,5.30
2018-05-21T08:16:56.888Z,4.90
2018-05-21T08:17:56.925Z,4.70
2018-05-21T08:18:56.948Z,5.00
2018-05-21T08:19:56.942Z,4.70
2018-05-21T08:20:56.945Z,4.50
2018-05-21T08:21:56.972Z,4.40
2018-05-21T08:22:57.023Z,5.00
2018-05-21T08:23:56.999Z,5.10
2018-05-21T08:24:57.009Z,5.60
2018-05-21T08:25:57.049Z,5.10
2018-05-21T08:26:57.094Z,5.50
2018-05-21T08:27:57.057Z,5.30
2018-05-21T08:28:57.125Z,5.20
2018-05-21T08:29:57.087Z,5.10
2018-05-21T08:30:57.140Z,4.80
2018-05-21T08:31:57.133Z,4.80
2018-05-21T08:32:57.149Z,4.80
2018-05-21T08:33:57.179Z,4.90
2018-05-21T08:34:57.191Z,5.10
2018-05-21T08:35:57.207Z,4.90
2018-05-21T08:36:57.240Z,4.40
2018-05-21T08:37:57.232Z,4.60
2018-05-21T08:38:57.251Z,4.80
2018-05-21T08:39:57.271Z,4.20
2018-05-21T08:40:57.285Z,4.60
2018-05-21T08:41:57.301Z,4.50
2018-05-21T08:42:57.372Z,4.90
2018-05-21T08:43:57.362Z,4.80
2018-05-21T08:44:57.373Z,4.70
2018-05-21T08:45:57.380Z,4.70
2018-05-21T08:46:57.405Z,4.50
2018-05-21T08:47:57.402Z,4.30
2018-05-21T08:48:57.462Z,4.50
2018-05-21T08:49:57.448Z,4.30
2018-05-21T08:50:57.473Z,4.60
2018-05-21T08:51:57.478Z,4.40
2018-05-21T08:52:57.515Z,4.20
2018-05-21T08:53:57.537Z,4.10
2018-05-21T08:54:57.541Z,4.30
2018-05-21T08:55:57.558Z,4.00
2018-05-21T08:56:57.582Z,4.20
2018-05-21T08:57:57.596Z,4.30
2018-05-21T08:58:57.633Z,4.50
2018-05-21T08:59:57.639Z,4.50
2018-05-21T09:00:57.669Z,4.50
2018-05-21T09:01:57.688Z,4.30
2018-05-21T09:02:57.704Z,4.20
2018-05-21T09:03:57.723Z,4.40
2018-05-21T09:04:57.746Z,4.50
2018-05-21T09:05:57.765Z,4.40
2018-05-21T09:06:57.792Z,4.30
2018-05-21T09:07:57.809Z,4.20
2018-05-21T09:08:57.834Z,4.30
2018-05-21T09:09:57.911Z,4.30
2018-05-21T09:10:57.874Z,4.40
2018-05-21T09:11:57.898Z,4.70
2018-05-21T09:12:57.929Z,4.60
2018-05-21T09:13:57.938Z,4.30
2018-05-21T09:14:57.969Z,4.30
2018-05-21T09:15:57.980Z,4.10
2018-05-21T09:16:58.001Z,3.70
2018-05-21T09:17:58.023Z,4.10
2018-05-21T09:18:58.051Z,3.60
2018-05-21T09:19:58.062Z,3.90
2018-05-21T09:20:58.087Z,3.30
2018-05-21T09:21:58.117Z,3.30
2018-05-21T09:22:58.130Z,3.40
2018-05-21T09:23:58.150Z,3.80
2018-05-21T09:24:58.168Z,3.50
2018-05-21T09:25:58.257Z,3.50
2018-05-21T09:26:58.209Z,3.70
2018-05-21T09:27:58.231Z,3.40
2018-05-21T09:28:58.245Z,3.60
2018-05-21T09:29:58.276Z,3.60
2018-05-21T09:30:58.293Z,3.70
2018-05-21T09:31:58.308Z,3.40
2018-05-21T09:32:58.334Z,3.60
2018-05-21T09:33:58.378Z,3.50
2018-05-21T09:34:58.378Z,3.60
2018-05-21T09:35:58.386Z,3.70
2018-05-21T09:36:58.411Z,4.00
2018-05-21T09:37:58.431Z,3.90
2018-05-21T09:38:58.451Z,3.70
2018-05-21T09:39:58.462Z,3.80
2018-05-21T09:40:58.531Z,3.70
2018-05-21T09:41:58.585Z,4.00
2018-05-21T09:42:58.541Z,4.20
2018-05-21T09:43:58.598Z,3.90
2018-05-21T09:44:58.583Z,3.70
2018-05-21T09:45:58.591Z,3.90
2018-05-21T09:46:58.620Z,3.90
2018-05-21T09:47:58.628Z,3.80
2018-05-21T09:48:58.663Z,3.60
2018-05-21T09:49:58.681Z,3.50
2018-05-21T09:50:58.692Z,3.60
2018-05-21T09:51:58.712Z,3.50
2018-05-21T09:52:58.733Z,3.40
2018-05-21T09:53:58.756Z,3.30
2018-05-21T09:54:58.768Z,3.10
2018-05-21T09:55:58.795Z,3.20
2018-05-21T09:56:58.808Z,3.10
2018-05-21T09:57:58.827Z,4.00
2018-05-21T09:58:58.851Z,4.30
2018-05-21T09:59:58.866Z,4.40
2018-05-21T10:00:58.899Z,4.30
2018-05-21T10:01:58.909Z,4.30
2018-05-21T10:02:58.925Z,4.30
2018-05-21T10:03:58.977Z,4.50
2018-05-21T10:04:58.961Z,4.40
2018-05-21T10:05:58.984Z,4.10
2018-05-21T10:06:59.005Z,4.00
2018-05-21T10:07:59.025Z,4.10
2018-05-21T10:08:59.052Z,4.20
2018-05-21T10:09:59.066Z,4.30
2018-05-21T10:10:59.085Z,3.90
2018-05-21T10:11:59.110Z,4.00
2018-05-21T10:12:59.136Z,4.20
2018-05-21T10:13:59.146Z,4.40
2018-05-21T10:14:59.168Z,4.00
2018-05-21T10:15:59.180Z,3.80
2018-05-21T10:16:59.207Z,4.00
2018-05-21T10:17:59.217Z,3.80
2018-05-21T10:18:59.239Z,3.80
2018-05-21T10:19:59.261Z,3.40
2018-05-21T10:20:59.281Z,3.70
2018-05-21T10:21:59.297Z,3.70
2018-05-21T10:22:59.324Z,3.90
2018-05-21T10:23:59.337Z,3.70
2018-05-21T10:24:59.375Z,3.80
2018-05-21T10:25:59.417Z,4.10
2018-05-21T10:26:59.402Z,3.90
2018-05-21T10:27:59.418Z,4.20
2018-05-21T10:28:59.435Z,4.30
2018-05-21T10:29:59.455Z,4.30
2018-05-21T10:30:59.471Z,4.00
2018-05-21T10:31:59.497Z,4.10
2018-05-21T10:32:59.528Z,4.10
2018-05-21T10:33:59.591Z,4.20
2018-05-21T10:34:59.555Z,4.00
2018-05-21T10:35:59.570Z,4.20
2018-05-21T10:36:59.590Z,3.90
2018-05-21T10:37:59.616Z,3.60
2018-05-21T10:38:59.625Z,3.60
2018-05-21T10:39:59.640Z,3.90
2018-05-21T10:40:59.669Z,3.70
2018-05-21T10:41:59.687Z,3.80
2018-05-21T10:42:59.726Z,3.80
2018-05-21T10:43:59.726Z,4.00
2018-05-21T10:44:59.751Z,3.80
2018-05-21T10:45:59.765Z,4.20
2018-05-21T10:46:59.796Z,4.20
2018-05-21T10:47:59.802Z,4.10
2018-05-21T10:48:59.845Z,3.70
2018-05-21T10:49:59.871Z,3.90
2018-05-21T10:50:59.858Z,3.80
2018-05-21T10:51:59.913Z,4.40
2018-05-21T10:52:59.967Z,4.00
2018-05-21T10:53:59.921Z,4.10
2018-05-21T10:54:59.932Z,4.00
2018-05-21T10:55:59.953Z,4.10
2018-05-21T10:56:59.976Z,3.40
2018-05-21T10:58:00.000Z,3.50
2018-05-21T10:59:00.025Z,3.30
2018-05-21T11:00:00.033Z,3.70
2018-05-21T11:01:00.080Z,3.50
2018-05-21T11:02:00.071Z,3.40
2018-05-21T11:03:00.101Z,3.90
2018-05-21T11:04:00.111Z,3.30
2018-05-21T11:05:00.129Z,3.50
2018-05-21T11:06:00.150Z,3.30
2018-05-21T11:07:00.160Z,3.10
2018-05-21T11:08:00.231Z,3.30
2018-05-21T11:09:00.197Z,3.20
2018-05-21T11:10:00.226Z,3.00
2018-05-21T11:11:00.254Z,3.10
2018-05-21T11:12:00.260Z,2.80
2018-05-21T11:13:00.294Z,3.00
2018-05-21T11:14:00.308Z,3.10
2018-05-21T11:15:00.323Z,3.00
2018-05-21T11:16:00.337Z,2.50
2018-05-21T11:17:00.359Z,2.60
2018-05-21T11:18:00.462Z,2.60
2018-05-21T11:19:00.405Z,2.40
2018-05-21T11:20:00.409Z,2.40
2018-05-21T11:21:00.434Z,2.50
2018-05-21T11:22:00.451Z,2.70
2018-05-21T11:23:00.476Z,2.50
2018-05-21T11:24:00.562Z,2.70
2018-05-21T11:25:00.536Z,2.50
2018-05-21T11:26:00.533Z,2.90
2018-05-21T11:27:00.605Z,3.40
2018-05-21T11:28:00.671Z,2.70
2018-05-21T11:29:00.589Z,2.80
2018-05-21T11:30:00.621Z,2.60
2018-05-21T11:31:00.626Z,2.50
2018-05-21T11:32:00.644Z,2.80
2018-05-21T11:33:00.683Z,2.60
2018-05-21T11:34:00.690Z,2.60
2018-05-21T11:35:00.704Z,2.90
2018-05-21T11:36:00.728Z,2.90
2018-05-21T11:37:00.751Z,2.90
2018-05-21T11:38:00.772Z,3.30
2018-05-21T11:39:00.786Z,2.90
2018-05-21T11:40:00.807Z,3.10
2018-05-21T11:41:00.840Z,3.20
2018-05-21T11:42:00.850Z,3.30
2018-05-21T11:43:00.870Z,3.00
2018-05-21T11:44:00.887Z,3.00
2018-05-21T11:45:00.939Z,3.30
2018-05-21T11:46:00.956Z,3.00
2018-05-21T11:47:00.956Z,2.80
2018-05-21T11:48:00.955Z,3.00
2018-05-21T11:49:00.973Z,2.70
2018-05-21T11:50:00.999Z,2.80
2018-05-21T11:51:01.025Z,2.60
2018-05-21T11:52:01.038Z,2.80
2018-05-21T11:53:01.061Z,2.50
2018-05-21T11:54:01.077Z,2.90
2018-05-21T11:55:01.164Z,2.60
2018-05-21T11:56:01.123Z,2.70
2018-05-21T11:57:01.162Z,2.80
2018-05-21T11:58:01.162Z,2.60
2018-05-21T11:59:01.175Z,2.60
2018-05-21T12:00:01.194Z,2.60
2018-05-21T12:01:01.214Z,2.60
2018-05-21T12:02:01.325Z,2.60
2018-05-21T12:03:01.350Z,2.70
2018-05-21T12:04:01.295Z,2.60
2018-05-21T12:05:01.295Z,2.90
2018-05-21T12:06:01.312Z,2.60
2018-05-21T12:07:01.339Z,2.90
2018-05-21T12:08:01.366Z,2.60
2018-05-21T12:09:01.369Z,2.90
2018-05-21T12:10:01.394Z,2.90
2018-05-21T12:11:01.414Z,2.80
2018-05-21T12:12:01.432Z,2.70
2018-05-21T12:13:01.476Z,2.50
2018-05-21T12:14:01.478Z,2.70
2018-05-21T12:15:01.508Z,2.60
2018-05-21T12:16:01.520Z,2.80
2018-05-21T12:17:01.536Z,2.40
2018-05-21T12:18:01.547Z,2.70
2018-05-21T12:19:01.593Z,2.70
2018-05-21T12:20:01.582Z,2.70
2018-05-21T12:21:01.604Z,2.70
2018-05-21T12:22:01.622Z,2.50
2018-05-21T12:23:01.642Z,2.60
2018-05-21T12:24:01.664Z,2.70
2018-05-21T12:25:01.679Z,2.70
2018-05-21T12:26:01.694Z,2.50
2018-05-21T12:27:01.715Z,2.40
2018-05-21T12:28:01.737Z,2.60
2018-05-21T12:29:01.759Z,2.60
2018-05-21T12:30:01.763Z,2.70
2018-05-21T12:31:01.795Z,2.60
2018-05-21T12:32:01.806Z,2.40
2018-05-21T12:33:01.832Z,2.20
2018-05-21T12:34:01.837Z,2.00
2018-05-21T12:35:01.880Z,2.00
2018-05-21T12:36:01.905Z,2.00
2018-05-21T12:37:01.887Z,2.30
2018-05-21T12:38:01.899Z,2.50
2018-05-21T12:39:01.927Z,2.10
2018-05-21T12:40:01.941Z,2.00
2018-05-21T12:41:01.926Z,2.30
2018-05-21T12:42:01.939Z,2.30
2018-05-21T12:43:01.965Z,2.40
2018-05-21T12:44:01.971Z,2.20
2018-05-21T12:45:02.015Z,2.50
2018-05-21T12:46:02.034Z,2.50
2018-05-21T12:47:02.013Z,2.70
2018-05-21T12:48:02.030Z,2.50
2018-05-21T12:49:02.039Z,2.70
2018-05-21T12:50:02.052Z,2.90
2018-05-21T12:51:02.049Z,3.10
2018-05-21T12:52:02.124Z,2.90
2018-05-21T12:53:02.065Z,2.70
2018-05-21T12:54:02.065Z,2.80
2018-05-21T12:55:02.092Z,2.80
2018-05-21T12:56:02.084Z,3.10
2018-05-21T12:57:02.115Z,2.90
2018-05-21T12:58:02.097Z,2.70
2018-05-21T12:59:02.111Z,2.80
2018-05-21T13:00:02.085Z,2.70
2018-05-21T13:01:02.135Z,2.50
2018-05-21T13:02:02.143Z,2.70
2018-05-21T13:03:02.148Z,2.70
2018-05-21T13:04:02.149Z,2.60
2018-05-21T13:05:02.143Z,2.60
2018-05-21T13:06:02.163Z,2.50
2018-05-21T13:07:02.170Z,2.70
2018-05-21T13:08:02.170Z,2.90
2018-05-21T13:09:02.172Z,2.90
2018-05-21T13:10:02.175Z,3.00
2018-05-21T13:11:02.188Z,3.00
2018-05-21T13:12:02.184Z,2.80
2018-05-21T13:13:02.207Z,2.40
2018-05-21T13:14:02.200Z,2.50
2018-05-21T13:15:02.160Z,2.50
2018-05-21T13:16:02.167Z,2.70
2018-05-21T13:17:02.182Z,2.60
2018-05-21T13:18:02.181Z,2.50
2018-05-21T13:19:02.162Z,2.60
2018-05-21T13:20:02.157Z,2.80
2018-05-21T13:21:02.232Z,2.50
2018-05-21T13:22:02.169Z,2.70
2018-05-21T13:23:02.171Z,2.80
2018-05-21T13:24:02.196Z,2.60
2018-05-21T13:25:02.188Z,2.60
2018-05-21T13:26:02.182Z,2.90
2018-05-21T13:27:02.179Z,2.60
2018-05-21T13:28:02.186Z,2.40
2018-05-21T13:29:02.203Z,2.50
2018-05-21T13:30:02.268Z,2.50
2018-05-21T13:31:02.193Z,2.90
2018-05-21T13:32:02.316Z,2.50
2018-05-21T13:33:02.232Z,2.60
2018-05-21T13:34:02.213Z,2.60
2018-05-21T13:35:02.215Z,2.50
2018-05-21T13:36:02.264Z,2.60
2018-05-21T13:37:02.206Z,2.40
2018-05-21T13:38:02.228Z,2.50
2018-05-21T13:39:02.232Z,2.60
2018-05-21T13:40:02.245Z,2.40
2018-05-21T13:41:02.220Z,2.60